sensor_id;sensor_type;location;lat;lon;timestamp;P1;durP1;ratioP1;P2;durP2;ratioP2
40244;SDS011;25963;42.694;23.600;2023-08-06T00:00:38;5.97;;;4.15;;
40244;SDS011;25963;42.694;23.600;2023-08-06T00:03:04;13.52;;;5.00;;
40244;SDS011;25963;42.694;23.600;2023-08-06T00:05:29;4.90;;;3.78;;
40244;SDS011;25963;42.694;23.600;2023-08-06T00:07:55;8.50;;;5.15;;
40244;SDS011;25963;42.694;23.600;2023-08-06T00:10:20;8.10;;;4.55;;
40244;SDS011;25963;42.694;23.600;2023-08-06T00:12:46;5.97;;;4.60;;
40244;SDS011;25963;42.694;23.600;2023-08-06T00:15:11;7.70;;;4.25;;
40244;SDS011;25963;42.694;23.600;2023-08-06T00:17:37;6.80;;;4.43;;
40244;SDS011;25963;42.694;23.600;2023-08-06T00:20:03;5.80;;;4.53;;
40244;SDS011;25963;42.694;23.600;2023-08-06T00:22:30;8.45;;;4.25;;
40244;SDS011;25963;42.694;23.600;2023-08-06T00:24:57;12.50;;;5.40;;
40244;SDS011;25963;42.694;23.600;2023-08-06T00:27:22;5.78;;;4.68;;
40244;SDS011;25963;42.694;23.600;2023-08-06T00:29:48;7.53;;;4.72;;
40244;SDS011;25963;42.694;23.600;2023-08-06T00:32:13;6.10;;;4.57;;
40244;SDS011;25963;42.694;23.600;2023-08-06T00:34:39;8.98;;;4.78;;
40244;SDS011;25963;42.694;23.600;2023-08-06T00:37:04;4.90;;;4.40;;
40244;SDS011;25963;42.694;23.600;2023-08-06T00:39:30;8.18;;;4.95;;
40244;SDS011;25963;42.694;23.600;2023-08-06T00:41:55;11.65;;;4.20;;
40244;SDS011;25963;42.694;23.600;2023-08-06T00:44:21;6.93;;;5.28;;
40244;SDS011;25963;42.694;23.600;2023-08-06T00:46:46;6.72;;;4.95;;
40244;SDS011;25963;42.694;23.600;2023-08-06T00:49:12;6.93;;;5.10;;
40244;SDS011;25963;42.694;23.600;2023-08-06T00:51:38;10.60;;;4.53;;
40244;SDS011;25963;42.694;23.600;2023-08-06T00:54:03;9.82;;;5.38;;
40244;SDS011;25963;42.694;23.600;2023-08-06T00:56:28;5.78;;;4.60;;
40244;SDS011;25963;42.694;23.600;2023-08-06T00:58:54;8.63;;;4.63;;
40244;SDS011;25963;42.694;23.600;2023-08-06T01:01:20;7.78;;;4.88;;
40244;SDS011;25963;42.694;23.600;2023-08-06T01:03:46;6.07;;;4.82;;
40244;SDS011;25963;42.694;23.600;2023-08-06T01:06:11;6.47;;;4.38;;
40244;SDS011;25963;42.694;23.600;2023-08-06T01:11:26;6.57;;;5.13;;
40244;SDS011;25963;42.694;23.600;2023-08-06T01:14:02;6.70;;;4.78;;
40244;SDS011;25963;42.694;23.600;2023-08-06T01:16:46;6.30;;;5.60;;
40244;SDS011;25963;42.694;23.600;2023-08-06T01:19:17;5.97;;;5.38;;
40244;SDS011;25963;42.694;23.600;2023-08-06T01:21:43;7.72;;;5.00;;
40244;SDS011;25963;42.694;23.600;2023-08-06T01:24:08;7.25;;;5.72;;
40244;SDS011;25963;42.694;23.600;2023-08-06T01:26:39;8.70;;;5.95;;
40244;SDS011;25963;42.694;23.600;2023-08-06T01:29:07;8.20;;;5.93;;
40244;SDS011;25963;42.694;23.600;2023-08-06T01:31:38;7.00;;;5.50;;
40244;SDS011;25963;42.694;23.600;2023-08-06T01:34:07;7.20;;;5.63;;
40244;SDS011;25963;42.694;23.600;2023-08-06T01:36:38;7.78;;;5.57;;
40244;SDS011;25963;42.694;23.600;2023-08-06T01:39:05;6.38;;;5.60;;
40244;SDS011;25963;42.694;23.600;2023-08-06T01:41:30;7.45;;;5.65;;
40244;SDS011;25963;42.694;23.600;2023-08-06T01:43:56;8.85;;;5.28;;
40244;SDS011;25963;42.694;23.600;2023-08-06T01:46:21;6.65;;;4.97;;
40244;SDS011;25963;42.694;23.600;2023-08-06T01:48:46;6.85;;;4.78;;
40244;SDS011;25963;42.694;23.600;2023-08-06T01:51:12;6.97;;;5.18;;
40244;SDS011;25963;42.694;23.600;2023-08-06T01:53:37;9.20;;;5.85;;
40244;SDS011;25963;42.694;23.600;2023-08-06T01:56:03;8.98;;;5.80;;
40244;SDS011;25963;42.694;23.600;2023-08-06T01:58:28;7.93;;;5.75;;
40244;SDS011;25963;42.694;23.600;2023-08-06T02:00:54;6.80;;;6.10;;
40244;SDS011;25963;42.694;23.600;2023-08-06T02:03:19;6.75;;;6.00;;
40244;SDS011;25963;42.694;23.600;2023-08-06T02:05:44;10.98;;;6.88;;
40244;SDS011;25963;42.694;23.600;2023-08-06T02:08:10;9.65;;;7.28;;
40244;SDS011;25963;42.694;23.600;2023-08-06T02:10:36;8.35;;;6.35;;
40244;SDS011;25963;42.694;23.600;2023-08-06T02:13:01;12.55;;;6.47;;
40244;SDS011;25963;42.694;23.600;2023-08-06T02:15:27;7.45;;;6.60;;
40244;SDS011;25963;42.694;23.600;2023-08-06T02:17:52;8.27;;;6.30;;
40244;SDS011;25963;42.694;23.600;2023-08-06T02:20:18;8.00;;;5.75;;
40244;SDS011;25963;42.694;23.600;2023-08-06T02:22:43;7.82;;;6.30;;
40244;SDS011;25963;42.694;23.600;2023-08-06T02:25:08;7.50;;;6.00;;
40244;SDS011;25963;42.694;23.600;2023-08-06T02:27:34;9.63;;;7.40;;
40244;SDS011;25963;42.694;23.600;2023-08-06T02:29:59;7.70;;;6.88;;
40244;SDS011;25963;42.694;23.600;2023-08-06T02:32:25;9.52;;;7.60;;
40244;SDS011;25963;42.694;23.600;2023-08-06T02:34:50;9.52;;;7.93;;
40244;SDS011;25963;42.694;23.600;2023-08-06T02:37:16;10.30;;;7.55;;
40244;SDS011;25963;42.694;23.600;2023-08-06T02:39:41;8.90;;;7.57;;
40244;SDS011;25963;42.694;23.600;2023-08-06T02:42:07;8.00;;;6.93;;
40244;SDS011;25963;42.694;23.600;2023-08-06T02:44:33;10.52;;;8.35;;
40244;SDS011;25963;42.694;23.600;2023-08-06T02:46:59;10.77;;;9.10;;
40244;SDS011;25963;42.694;23.600;2023-08-06T02:49:25;9.15;;;8.25;;
40244;SDS011;25963;42.694;23.600;2023-08-06T02:51:50;11.68;;;7.85;;
40244;SDS011;25963;42.694;23.600;2023-08-06T02:54:16;7.93;;;7.07;;
40244;SDS011;25963;42.694;23.600;2023-08-06T02:56:43;11.10;;;8.48;;
40244;SDS011;25963;42.694;23.600;2023-08-06T02:59:09;11.15;;;9.00;;
40244;SDS011;25963;42.694;23.600;2023-08-06T03:01:35;12.02;;;9.00;;
40244;SDS011;25963;42.694;23.600;2023-08-06T03:04:01;11.80;;;9.10;;
40244;SDS011;25963;42.694;23.600;2023-08-06T03:06:27;11.88;;;8.13;;
40244;SDS011;25963;42.694;23.600;2023-08-06T03:08:52;11.43;;;8.52;;
40244;SDS011;25963;42.694;23.600;2023-08-06T03:11:17;9.98;;;8.00;;
40244;SDS011;25963;42.694;23.600;2023-08-06T03:13:43;9.65;;;7.97;;
40244;SDS011;25963;42.694;23.600;2023-08-06T03:16:08;8.23;;;6.75;;
40244;SDS011;25963;42.694;23.600;2023-08-06T03:18:34;11.07;;;8.35;;
40244;SDS011;25963;42.694;23.600;2023-08-06T03:20:59;11.93;;;8.85;;
40244;SDS011;25963;42.694;23.600;2023-08-06T03:23:25;10.98;;;8.30;;
40244;SDS011;25963;42.694;23.600;2023-08-06T03:25:50;10.98;;;8.85;;
40244;SDS011;25963;42.694;23.600;2023-08-06T03:28:16;9.23;;;7.35;;
40244;SDS011;25963;42.694;23.600;2023-08-06T03:30:41;11.10;;;8.30;;
40244;SDS011;25963;42.694;23.600;2023-08-06T03:33:07;11.23;;;8.02;;
40244;SDS011;25963;42.694;23.600;2023-08-06T03:35:32;12.52;;;9.18;;
40244;SDS011;25963;42.694;23.600;2023-08-06T03:37:58;11.85;;;10.02;;
40244;SDS011;25963;42.694;23.600;2023-08-06T03:40:23;12.52;;;10.50;;
40244;SDS011;25963;42.694;23.600;2023-08-06T03:42:49;15.55;;;11.65;;
40244;SDS011;25963;42.694;23.600;2023-08-06T03:45:14;16.60;;;11.20;;
40244;SDS011;25963;42.694;23.600;2023-08-06T03:47:40;16.17;;;10.10;;
40244;SDS011;25963;42.694;23.600;2023-08-06T04:06:10;17.17;;;10.65;;
40244;SDS011;25963;42.694;23.600;2023-08-06T04:08:36;14.55;;;10.02;;
40244;SDS011;25963;42.694;23.600;2023-08-06T04:11:01;18.02;;;11.50;;
40244;SDS011;25963;42.694;23.600;2023-08-06T04:13:27;15.10;;;11.63;;
40244;SDS011;25963;42.694;23.600;2023-08-06T04:15:52;21.83;;;13.30;;
40244;SDS011;25963;42.694;23.600;2023-08-06T04:18:18;19.85;;;13.43;;
40244;SDS011;25963;42.694;23.600;2023-08-06T04:20:47;20.13;;;12.38;;
40244;SDS011;25963;42.694;23.600;2023-08-06T04:23:14;15.17;;;12.33;;
40244;SDS011;25963;42.694;23.600;2023-08-06T04:25:40;15.23;;;11.07;;
40244;SDS011;25963;42.694;23.600;2023-08-06T04:28:05;16.70;;;12.23;;
40244;SDS011;25963;42.694;23.600;2023-08-06T04:30:31;13.23;;;11.05;;
40244;SDS011;25963;42.694;23.600;2023-08-06T04:32:56;12.18;;;10.70;;
40244;SDS011;25963;42.694;23.600;2023-08-06T04:35:23;19.70;;;12.23;;
40244;SDS011;25963;42.694;23.600;2023-08-06T04:37:48;13.02;;;10.63;;
40244;SDS011;25963;42.694;23.600;2023-08-06T04:40:14;12.82;;;10.70;;
40244;SDS011;25963;42.694;23.600;2023-08-06T04:42:39;15.57;;;12.00;;
40244;SDS011;25963;42.694;23.600;2023-08-06T04:45:05;18.60;;;12.88;;
40244;SDS011;25963;42.694;23.600;2023-08-06T04:47:31;14.45;;;11.90;;
40244;SDS011;25963;42.694;23.600;2023-08-06T04:49:56;15.75;;;12.25;;
40244;SDS011;25963;42.694;23.600;2023-08-06T04:52:22;17.08;;;12.57;;
40244;SDS011;25963;42.694;23.600;2023-08-06T04:54:47;16.55;;;11.32;;
40244;SDS011;25963;42.694;23.600;2023-08-06T04:57:12;16.42;;;12.27;;
40244;SDS011;25963;42.694;23.600;2023-08-06T04:59:38;14.10;;;11.25;;
40244;SDS011;25963;42.694;23.600;2023-08-06T05:02:04;11.75;;;9.85;;
40244;SDS011;25963;42.694;23.600;2023-08-06T05:04:30;11.98;;;10.35;;
40244;SDS011;25963;42.694;23.600;2023-08-06T05:06:55;14.75;;;11.93;;
40244;SDS011;25963;42.694;23.600;2023-08-06T05:09:21;13.93;;;11.57;;
40244;SDS011;25963;42.694;23.600;2023-08-06T05:11:46;12.65;;;11.35;;
40244;SDS011;25963;42.694;23.600;2023-08-06T05:14:12;11.30;;;10.18;;
40244;SDS011;25963;42.694;23.600;2023-08-06T05:16:38;13.90;;;10.55;;
40244;SDS011;25963;42.694;23.600;2023-08-06T05:19:03;10.15;;;9.02;;
40244;SDS011;25963;42.694;23.600;2023-08-06T05:21:29;11.98;;;9.20;;
40244;SDS011;25963;42.694;23.600;2023-08-06T05:23:54;9.85;;;8.52;;
40244;SDS011;25963;42.694;23.600;2023-08-06T05:26:20;9.48;;;8.23;;
40244;SDS011;25963;42.694;23.600;2023-08-06T05:28:45;8.35;;;7.45;;
40244;SDS011;25963;42.694;23.600;2023-08-06T05:31:11;9.38;;;8.18;;
40244;SDS011;25963;42.694;23.600;2023-08-06T05:33:37;8.77;;;6.88;;
40244;SDS011;25963;42.694;23.600;2023-08-06T05:36:02;8.07;;;6.75;;
40244;SDS011;25963;42.694;23.600;2023-08-06T05:38:29;7.93;;;6.97;;
40244;SDS011;25963;42.694;23.600;2023-08-06T05:40:55;9.07;;;8.15;;
40244;SDS011;25963;42.694;23.600;2023-08-06T05:43:21;9.02;;;8.13;;
40244;SDS011;25963;42.694;23.600;2023-08-06T05:45:46;9.82;;;8.00;;
40244;SDS011;25963;42.694;23.600;2023-08-06T05:48:14;9.45;;;8.57;;
40244;SDS011;25963;42.694;23.600;2023-08-06T05:50:40;10.40;;;8.45;;
40244;SDS011;25963;42.694;23.600;2023-08-06T05:53:05;8.93;;;8.13;;
40244;SDS011;25963;42.694;23.600;2023-08-06T05:55:31;7.43;;;6.80;;
40244;SDS011;25963;42.694;23.600;2023-08-06T05:57:57;8.25;;;7.47;;
40244;SDS011;25963;42.694;23.600;2023-08-06T06:00:23;8.80;;;7.90;;
40244;SDS011;25963;42.694;23.600;2023-08-06T06:02:48;10.13;;;8.43;;
40244;SDS011;25963;42.694;23.600;2023-08-06T06:05:14;12.63;;;8.65;;
40244;SDS011;25963;42.694;23.600;2023-08-06T06:07:39;10.18;;;9.20;;
40244;SDS011;25963;42.694;23.600;2023-08-06T06:10:05;12.07;;;8.23;;
40244;SDS011;25963;42.694;23.600;2023-08-06T06:12:31;8.88;;;8.00;;
40244;SDS011;25963;42.694;23.600;2023-08-06T06:14:57;7.45;;;6.75;;
40244;SDS011;25963;42.694;23.600;2023-08-06T06:17:22;7.65;;;6.95;;
40244;SDS011;25963;42.694;23.600;2023-08-06T06:19:48;6.38;;;5.80;;
40244;SDS011;25963;42.694;23.600;2023-08-06T06:22:13;7.53;;;6.72;;
40244;SDS011;25963;42.694;23.600;2023-08-06T06:24:39;7.47;;;5.97;;
40244;SDS011;25963;42.694;23.600;2023-08-06T06:27:04;6.85;;;6.07;;
40244;SDS011;25963;42.694;23.600;2023-08-06T06:29:30;6.32;;;5.25;;
40244;SDS011;25963;42.694;23.600;2023-08-06T06:31:55;7.95;;;4.93;;
40244;SDS011;25963;42.694;23.600;2023-08-06T06:34:21;7.07;;;5.68;;
40244;SDS011;25963;42.694;23.600;2023-08-06T06:36:47;7.40;;;5.57;;
40244;SDS011;25963;42.694;23.600;2023-08-06T06:39:12;5.97;;;5.38;;
40244;SDS011;25963;42.694;23.600;2023-08-06T06:41:38;5.78;;;5.20;;
40244;SDS011;25963;42.694;23.600;2023-08-06T06:44:03;8.43;;;5.90;;
40244;SDS011;25963;42.694;23.600;2023-08-06T06:46:29;6.05;;;5.53;;
40244;SDS011;25963;42.694;23.600;2023-08-06T06:48:54;5.50;;;5.00;;
40244;SDS011;25963;42.694;23.600;2023-08-06T06:51:20;5.00;;;4.60;;
40244;SDS011;25963;42.694;23.600;2023-08-06T06:53:45;4.82;;;4.43;;
40244;SDS011;25963;42.694;23.600;2023-08-06T06:56:11;4.63;;;4.18;;
40244;SDS011;25963;42.694;23.600;2023-08-06T06:58:36;4.68;;;3.70;;
40244;SDS011;25963;42.694;23.600;2023-08-06T07:01:03;4.38;;;3.28;;
40244;SDS011;25963;42.694;23.600;2023-08-06T07:03:29;4.03;;;3.65;;
40244;SDS011;25963;42.694;23.600;2023-08-06T07:05:57;5.20;;;3.60;;
40244;SDS011;25963;42.694;23.600;2023-08-06T07:08:23;3.50;;;3.20;;
40244;SDS011;25963;42.694;23.600;2023-08-06T07:10:49;3.95;;;3.65;;
40244;SDS011;25963;42.694;23.600;2023-08-06T07:13:15;4.28;;;3.40;;
40244;SDS011;25963;42.694;23.600;2023-08-06T07:15:41;5.55;;;3.30;;
40244;SDS011;25963;42.694;23.600;2023-08-06T07:18:07;3.88;;;2.65;;
40244;SDS011;25963;42.694;23.600;2023-08-06T07:20:32;3.55;;;2.60;;
40244;SDS011;25963;42.694;23.600;2023-08-06T07:22:59;3.25;;;2.65;;
40244;SDS011;25963;42.694;23.600;2023-08-06T07:25:25;4.10;;;2.63;;
40244;SDS011;25963;42.694;23.600;2023-08-06T07:27:51;2.95;;;2.25;;
40244;SDS011;25963;42.694;23.600;2023-08-06T07:30:16;2.85;;;2.55;;
40244;SDS011;25963;42.694;23.600;2023-08-06T07:32:42;4.10;;;2.70;;
40244;SDS011;25963;42.694;23.600;2023-08-06T07:35:07;5.43;;;3.05;;
40244;SDS011;25963;42.694;23.600;2023-08-06T07:37:37;3.00;;;2.40;;
40244;SDS011;25963;42.694;23.600;2023-08-06T07:40:03;5.60;;;2.40;;
40244;SDS011;25963;42.694;23.600;2023-08-06T07:42:29;3.90;;;2.50;;
40244;SDS011;25963;42.694;23.600;2023-08-06T07:44:55;4.07;;;2.60;;
40244;SDS011;25963;42.694;23.600;2023-08-06T07:47:21;2.90;;;2.28;;
40244;SDS011;25963;42.694;23.600;2023-08-06T07:49:47;3.20;;;2.45;;
40244;SDS011;25963;42.694;23.600;2023-08-06T07:52:13;2.85;;;2.13;;
40244;SDS011;25963;42.694;23.600;2023-08-06T07:54:38;5.43;;;2.80;;
40244;SDS011;25963;42.694;23.600;2023-08-06T07:57:04;2.78;;;2.45;;
40244;SDS011;25963;42.694;23.600;2023-08-06T07:59:29;4.13;;;2.45;;
40244;SDS011;25963;42.694;23.600;2023-08-06T08:01:55;3.42;;;2.90;;
40244;SDS011;25963;42.694;23.600;2023-08-06T08:04:21;3.70;;;3.00;;
40244;SDS011;25963;42.694;23.600;2023-08-06T08:06:46;2.80;;;2.60;;
40244;SDS011;25963;42.694;23.600;2023-08-06T08:09:12;4.75;;;3.15;;
40244;SDS011;25963;42.694;23.600;2023-08-06T08:11:39;3.72;;;2.67;;
40244;SDS011;25963;42.694;23.600;2023-08-06T08:14:05;4.28;;;3.15;;
40244;SDS011;25963;42.694;23.600;2023-08-06T08:16:31;4.20;;;2.80;;
40244;SDS011;25963;42.694;23.600;2023-08-06T08:18:57;3.00;;;2.80;;
40244;SDS011;25963;42.694;23.600;2023-08-06T08:21:22;4.00;;;3.38;;
40244;SDS011;25963;42.694;23.600;2023-08-06T08:23:49;10.80;;;8.50;;
40244;SDS011;25963;42.694;23.600;2023-08-06T08:26:17;6.30;;;4.88;;
40244;SDS011;25963;42.694;23.600;2023-08-06T08:28:43;4.50;;;4.10;;
40244;SDS011;25963;42.694;23.600;2023-08-06T08:31:09;6.20;;;5.25;;
40244;SDS011;25963;42.694;23.600;2023-08-06T08:33:36;4.00;;;3.28;;
40244;SDS011;25963;42.694;23.600;2023-08-06T08:36:02;6.53;;;5.53;;
40244;SDS011;25963;42.694;23.600;2023-08-06T08:38:28;5.25;;;4.75;;
40244;SDS011;25963;42.694;23.600;2023-08-06T08:40:54;4.70;;;3.60;;
40244;SDS011;25963;42.694;23.600;2023-08-06T08:43:23;3.30;;;3.00;;
40244;SDS011;25963;42.694;23.600;2023-08-06T08:45:52;4.75;;;3.50;;
40244;SDS011;25963;42.694;23.600;2023-08-06T08:48:24;5.18;;;3.75;;
40244;SDS011;25963;42.694;23.600;2023-08-06T08:50:51;3.88;;;2.95;;
40244;SDS011;25963;42.694;23.600;2023-08-06T08:53:17;5.00;;;4.03;;
40244;SDS011;25963;42.694;23.600;2023-08-06T08:55:43;3.97;;;2.50;;
40244;SDS011;25963;42.694;23.600;2023-08-06T08:58:11;4.80;;;3.03;;
40244;SDS011;25963;42.694;23.600;2023-08-06T09:00:37;2.88;;;2.55;;
40244;SDS011;25963;42.694;23.600;2023-08-06T09:03:04;5.38;;;3.10;;
40244;SDS011;25963;42.694;23.600;2023-08-06T09:05:31;4.32;;;3.17;;
40244;SDS011;25963;42.694;23.600;2023-08-06T09:08:02;3.50;;;3.20;;
40244;SDS011;25963;42.694;23.600;2023-08-06T09:12:54;4.18;;;3.00;;
40244;SDS011;25963;42.694;23.600;2023-08-06T09:15:24;3.20;;;2.90;;
40244;SDS011;25963;42.694;23.600;2023-08-06T09:17:51;3.72;;;2.63;;
40244;SDS011;25963;42.694;23.600;2023-08-06T09:20:17;3.92;;;3.63;;
40244;SDS011;25963;42.694;23.600;2023-08-06T09:22:43;4.88;;;3.00;;
40244;SDS011;25963;42.694;23.600;2023-08-06T09:25:10;3.15;;;2.85;;
40244;SDS011;25963;42.694;23.600;2023-08-06T09:27:38;3.45;;;3.00;;
40244;SDS011;25963;42.694;23.600;2023-08-06T09:30:05;3.33;;;3.00;;
40244;SDS011;25963;42.694;23.600;2023-08-06T09:32:47;5.50;;;3.30;;
40244;SDS011;25963;42.694;23.600;2023-08-06T09:35:16;3.95;;;2.97;;
40244;SDS011;25963;42.694;23.600;2023-08-06T09:37:42;3.17;;;2.88;;
40244;SDS011;25963;42.694;23.600;2023-08-06T09:42:53;4.95;;;3.20;;
40244;SDS011;25963;42.694;23.600;2023-08-06T09:45:19;3.38;;;2.80;;
40244;SDS011;25963;42.694;23.600;2023-08-06T09:47:46;3.17;;;2.85;;
40244;SDS011;25963;42.694;23.600;2023-08-06T09:50:19;3.53;;;2.58;;
40244;SDS011;25963;42.694;23.600;2023-08-06T09:52:48;3.15;;;2.78;;
40244;SDS011;25963;42.694;23.600;2023-08-06T09:55:15;5.90;;;2.85;;
40244;SDS011;25963;42.694;23.600;2023-08-06T09:57:41;3.45;;;2.67;;
40244;SDS011;25963;42.694;23.600;2023-08-06T10:00:10;3.97;;;2.70;;
40244;SDS011;25963;42.694;23.600;2023-08-06T10:02:40;3.28;;;2.35;;
40244;SDS011;25963;42.694;23.600;2023-08-06T10:05:08;6.35;;;2.50;;
40244;SDS011;25963;42.694;23.600;2023-08-06T10:07:34;6.15;;;2.72;;
40244;SDS011;25963;42.694;23.600;2023-08-06T10:10:00;2.67;;;2.47;;
40244;SDS011;25963;42.694;23.600;2023-08-06T10:12:28;5.50;;;2.30;;
40244;SDS011;25963;42.694;23.600;2023-08-06T10:14:55;3.22;;;2.30;;
40244;SDS011;25963;42.694;23.600;2023-08-06T10:17:24;3.58;;;3.08;;
40244;SDS011;25963;42.694;23.600;2023-08-06T10:19:50;5.60;;;2.60;;
40244;SDS011;25963;42.694;23.600;2023-08-06T10:22:20;4.45;;;2.33;;
40244;SDS011;25963;42.694;23.600;2023-08-06T10:24:47;3.72;;;2.63;;
40244;SDS011;25963;42.694;23.600;2023-08-06T10:27:19;2.80;;;2.55;;
40244;SDS011;25963;42.694;23.600;2023-08-06T10:29:48;4.22;;;2.38;;
40244;SDS011;25963;42.694;23.600;2023-08-06T10:32:15;5.45;;;2.67;;
40244;SDS011;25963;42.694;23.600;2023-08-06T10:34:53;2.70;;;2.50;;
40244;SDS011;25963;42.694;23.600;2023-08-06T10:37:35;2.60;;;2.40;;
40244;SDS011;25963;42.694;23.600;2023-08-06T10:40:02;3.08;;;2.75;;
40244;SDS011;25963;42.694;23.600;2023-08-06T10:42:28;5.68;;;1.88;;
40244;SDS011;25963;42.694;23.600;2023-08-06T10:47:45;3.63;;;1.70;;
40244;SDS011;25963;42.694;23.600;2023-08-06T10:50:11;2.53;;;1.77;;
40244;SDS011;25963;42.694;23.600;2023-08-06T10:52:42;2.28;;;2.05;;
40244;SDS011;25963;42.694;23.600;2023-08-06T10:55:08;3.15;;;2.47;;
40244;SDS011;25963;42.694;23.600;2023-08-06T10:57:34;2.92;;;2.03;;
40244;SDS011;25963;42.694;23.600;2023-08-06T11:00:00;2.80;;;2.55;;
40244;SDS011;25963;42.694;23.600;2023-08-06T11:02:26;2.10;;;1.90;;
40244;SDS011;25963;42.694;23.600;2023-08-06T11:04:51;2.92;;;2.58;;
40244;SDS011;25963;42.694;23.600;2023-08-06T11:07:17;3.20;;;2.35;;
40244;SDS011;25963;42.694;23.600;2023-08-06T11:09:42;3.00;;;2.60;;
40244;SDS011;25963;42.694;23.600;2023-08-06T11:12:10;4.30;;;2.95;;
40244;SDS011;25963;42.694;23.600;2023-08-06T11:14:37;4.80;;;3.17;;
40244;SDS011;25963;42.694;23.600;2023-08-06T11:17:04;4.07;;;2.85;;
40244;SDS011;25963;42.694;23.600;2023-08-06T11:19:30;4.40;;;3.17;;
40244;SDS011;25963;42.694;23.600;2023-08-06T11:21:56;5.93;;;3.28;;
40244;SDS011;25963;42.694;23.600;2023-08-06T11:24:23;3.83;;;3.22;;
40244;SDS011;25963;42.694;23.600;2023-08-06T11:26:49;3.72;;;3.30;;
40244;SDS011;25963;42.694;23.600;2023-08-06T11:29:15;4.13;;;2.90;;
40244;SDS011;25963;42.694;23.600;2023-08-06T11:31:41;4.70;;;3.30;;
40244;SDS011;25963;42.694;23.600;2023-08-06T11:34:06;6.28;;;3.13;;
40244;SDS011;25963;42.694;23.600;2023-08-06T11:36:32;2.85;;;2.40;;
40244;SDS011;25963;42.694;23.600;2023-08-06T11:38:59;3.45;;;3.15;;
40244;SDS011;25963;42.694;23.600;2023-08-06T11:41:24;4.03;;;2.67;;
40244;SDS011;25963;42.694;23.600;2023-08-06T11:43:50;3.72;;;3.22;;
40244;SDS011;25963;42.694;23.600;2023-08-06T11:46:16;3.05;;;2.83;;
40244;SDS011;25963;42.694;23.600;2023-08-06T11:48:51;4.05;;;3.22;;
40244;SDS011;25963;42.694;23.600;2023-08-06T11:51:23;3.42;;;3.13;;
40244;SDS011;25963;42.694;23.600;2023-08-06T11:53:51;4.03;;;2.97;;
40244;SDS011;25963;42.694;23.600;2023-08-06T11:56:25;4.50;;;2.97;;
40244;SDS011;25963;42.694;23.600;2023-08-06T11:58:52;4.57;;;3.60;;
40244;SDS011;25963;42.694;23.600;2023-08-06T12:01:18;4.88;;;3.90;;
40244;SDS011;25963;42.694;23.600;2023-08-06T12:03:43;4.07;;;3.78;;
40244;SDS011;25963;42.694;23.600;2023-08-06T12:06:09;3.60;;;3.25;;
40244;SDS011;25963;42.694;23.600;2023-08-06T12:08:34;3.00;;;2.80;;
40244;SDS011;25963;42.694;23.600;2023-08-06T12:11:00;3.13;;;2.83;;
40244;SDS011;25963;42.694;23.600;2023-08-06T12:13:25;3.50;;;3.17;;
40244;SDS011;25963;42.694;23.600;2023-08-06T12:15:51;3.67;;;3.38;;
40244;SDS011;25963;42.694;23.600;2023-08-06T12:18:20;4.07;;;3.72;;
40244;SDS011;25963;42.694;23.600;2023-08-06T12:20:45;3.95;;;3.58;;
40244;SDS011;25963;42.694;23.600;2023-08-06T12:23:11;4.57;;;4.22;;
40244;SDS011;25963;42.694;23.600;2023-08-06T12:25:40;6.20;;;4.25;;
40244;SDS011;25963;42.694;23.600;2023-08-06T12:28:05;4.72;;;4.32;;
40244;SDS011;25963;42.694;23.600;2023-08-06T12:30:32;5.15;;;4.53;;
40244;SDS011;25963;42.694;23.600;2023-08-06T12:32:58;4.68;;;4.28;;
40244;SDS011;25963;42.694;23.600;2023-08-06T12:35:23;5.13;;;4.30;;
40244;SDS011;25963;42.694;23.600;2023-08-06T12:37:50;10.07;;;4.13;;
40244;SDS011;25963;42.694;23.600;2023-08-06T12:40:19;4.25;;;3.70;;
40244;SDS011;25963;42.694;23.600;2023-08-06T12:42:45;6.53;;;4.38;;
40244;SDS011;25963;42.694;23.600;2023-08-06T12:45:11;6.28;;;4.38;;
40244;SDS011;25963;42.694;23.600;2023-08-06T12:47:36;5.70;;;4.60;;
40244;SDS011;25963;42.694;23.600;2023-08-06T12:50:01;5.15;;;4.57;;
40244;SDS011;25963;42.694;23.600;2023-08-06T12:52:27;6.10;;;4.88;;
40244;SDS011;25963;42.694;23.600;2023-08-06T12:54:52;4.40;;;3.95;;
40244;SDS011;25963;42.694;23.600;2023-08-06T12:57:18;5.95;;;5.05;;
40244;SDS011;25963;42.694;23.600;2023-08-06T12:59:43;4.63;;;4.15;;
40244;SDS011;25963;42.694;23.600;2023-08-06T13:02:08;4.70;;;4.30;;
40244;SDS011;25963;42.694;23.600;2023-08-06T13:04:34;5.40;;;4.90;;
40244;SDS011;25963;42.694;23.600;2023-08-06T13:06:59;5.20;;;4.70;;
40244;SDS011;25963;42.694;23.600;2023-08-06T13:09:25;5.25;;;4.75;;
40244;SDS011;25963;42.694;23.600;2023-08-06T13:11:52;5.22;;;4.75;;
40244;SDS011;25963;42.694;23.600;2023-08-06T13:14:18;5.18;;;4.78;;
40244;SDS011;25963;42.694;23.600;2023-08-06T13:16:43;4.75;;;4.18;;
40244;SDS011;25963;42.694;23.600;2023-08-06T13:19:10;5.63;;;5.13;;
40244;SDS011;25963;42.694;23.600;2023-08-06T13:24:06;6.80;;;5.10;;
40244;SDS011;25963;42.694;23.600;2023-08-06T13:26:32;5.53;;;4.95;;
40244;SDS011;25963;42.694;23.600;2023-08-06T13:28:58;4.97;;;4.35;;
40244;SDS011;25963;42.694;23.600;2023-08-06T13:31:25;4.28;;;3.78;;
40244;SDS011;25963;42.694;23.600;2023-08-06T13:33:51;4.93;;;4.43;;
40244;SDS011;25963;42.694;23.600;2023-08-06T13:36:19;4.80;;;4.40;;
40244;SDS011;25963;42.694;23.600;2023-08-06T13:38:44;4.68;;;4.28;;
40244;SDS011;25963;42.694;23.600;2023-08-06T13:41:10;5.35;;;4.80;;
40244;SDS011;25963;42.694;23.600;2023-08-06T13:43:35;4.68;;;4.07;;
40244;SDS011;25963;42.694;23.600;2023-08-06T13:46:01;6.03;;;3.70;;
40244;SDS011;25963;42.694;23.600;2023-08-06T13:48:26;5.65;;;4.45;;
40244;SDS011;25963;42.694;23.600;2023-08-06T13:50:52;5.28;;;4.22;;
40244;SDS011;25963;42.694;23.600;2023-08-06T13:53:17;4.95;;;4.32;;
40244;SDS011;25963;42.694;23.600;2023-08-06T13:55:43;6.25;;;4.30;;
40244;SDS011;25963;42.694;23.600;2023-08-06T13:58:08;4.88;;;4.40;;
40244;SDS011;25963;42.694;23.600;2023-08-06T14:00:35;3.65;;;3.35;;
40244;SDS011;25963;42.694;23.600;2023-08-06T14:03:01;5.30;;;4.20;;
40244;SDS011;25963;42.694;23.600;2023-08-06T14:05:26;4.63;;;3.67;;
40244;SDS011;25963;42.694;23.600;2023-08-06T14:07:52;5.20;;;3.70;;
40244;SDS011;25963;42.694;23.600;2023-08-06T14:10:17;5.57;;;4.07;;
40244;SDS011;25963;42.694;23.600;2023-08-06T14:12:43;4.75;;;4.28;;
40244;SDS011;25963;42.694;23.600;2023-08-06T14:15:08;4.28;;;3.70;;
40244;SDS011;25963;42.694;23.600;2023-08-06T14:17:35;4.53;;;3.60;;
40244;SDS011;25963;42.694;23.600;2023-08-06T14:20:00;5.68;;;4.40;;
40244;SDS011;25963;42.694;23.600;2023-08-06T14:22:28;4.38;;;3.70;;
40244;SDS011;25963;42.694;23.600;2023-08-06T14:24:55;5.90;;;3.72;;
40244;SDS011;25963;42.694;23.600;2023-08-06T14:27:21;4.28;;;3.88;;
40244;SDS011;25963;42.694;23.600;2023-08-06T14:29:46;5.28;;;4.20;;
40244;SDS011;25963;42.694;23.600;2023-08-06T14:32:12;4.15;;;3.85;;
40244;SDS011;25963;42.694;23.600;2023-08-06T14:34:37;4.30;;;3.60;;
40244;SDS011;25963;42.694;23.600;2023-08-06T14:37:03;7.28;;;4.50;;
40244;SDS011;25963;42.694;23.600;2023-08-06T14:39:28;5.07;;;3.60;;
40244;SDS011;25963;42.694;23.600;2023-08-06T14:41:54;4.03;;;3.63;;
40244;SDS011;25963;42.694;23.600;2023-08-06T14:44:19;6.13;;;4.28;;
40244;SDS011;25963;42.694;23.600;2023-08-06T14:46:45;4.63;;;4.07;;
40244;SDS011;25963;42.694;23.600;2023-08-06T14:49:10;4.45;;;3.85;;
40244;SDS011;25963;42.694;23.600;2023-08-06T14:51:36;4.75;;;4.35;;
40244;SDS011;25963;42.694;23.600;2023-08-06T14:54:01;6.30;;;4.72;;